高雄國際航空站 - 塔台/地面席

METAR RCKH 212330Z 05003KT 7000 FEW018 29/24 Q1014 NOSIG RMK A2995=

站台狀態:Online
最後更新:2018-09-22 07:45:02